Time;durP1;ratioP1;P1;durP2;ratioP2;P2;SDS_P1;SDS_P2;PMS_P1;PMS_P2;Temp;Humidity;BMP_temperature;BMP_pressure;BME280_temperature;BME280_humidity;BME280_pressure;Samples;Min_cycle;Max_cycle;Signal;HPM_P1;HPM_P2
2023/07/27 00:00:05;;;;;;;2.15;1.33;;;;;;;12.34;91.78;100952.13;4873501;29;20479;-73
2023/07/27 00:02:32;;;;;;;4.25;1.52;;;;;;;12.34;92.28;100948.63;4879331;29;20036;-72
2023/07/27 00:04:57;;;;;;;3.88;1.40;;;;;;;12.30;91.17;100937.63;4847643;29;20186;-72
2023/07/27 00:07:24;;;;;;;3.67;1.60;;;;;;;12.35;91.76;100944.84;4870880;29;20147;-72
2023/07/27 00:09:50;;;;;;;3.25;1.40;;;;;;;12.37;91.98;100942.69;4843329;29;20123;-71
2023/07/27 00:12:19;;;;;;;3.72;2.17;;;;;;;12.36;91.84;100938.41;4838832;29;20689;-72
2023/07/27 00:14:45;;;;;;;4.40;2.00;;;;;;;12.38;92.41;100939.72;4842135;29;20354;-73
2023/07/27 00:17:10;;;;;;;3.13;1.90;;;;;;;12.38;92.11;100934.34;4853765;29;20538;-71
2023/07/27 00:19:36;;;;;;;3.95;1.90;;;;;;;12.38;92.01;100944.28;4872284;29;20068;-71
2023/07/27 00:22:02;;;;;;;4.22;1.58;;;;;;;12.37;92.29;100940.81;4876218;29;20045;-73
2023/07/27 00:24:28;;;;;;;2.42;1.55;;;;;;;12.37;92.15;100940.00;4876032;29;20033;-73
2023/07/27 00:26:54;;;;;;;3.60;1.55;;;;;;;12.39;92.59;100930.56;4856086;29;20045;-72
2023/07/27 00:29:23;;;;;;;3.38;2.10;;;;;;;12.40;92.09;100934.91;4847808;29;20048;-73
2023/07/27 00:31:50;;;;;;;4.30;1.80;;;;;;;12.43;92.16;100939.69;4842484;29;20049;-73
2023/07/27 00:34:16;;;;;;;;;;;;;;;12.41;92.31;100925.75;4854338;29;20029;-71
2023/07/27 00:36:41;;;;;;;2.85;1.65;;;;;;;12.42;92.32;100930.03;4890103;29;19915;-73
2023/07/27 00:39:07;;;;;;;3.72;2.22;;;;;;;12.43;92.24;100925.47;4843671;29;20044;-73
2023/07/27 00:41:33;;;;;;;4.65;2.63;;;;;;;12.41;92.57;100922.28;4857191;29;20149;-72
2023/07/27 00:43:59;;;;;;;4.40;2.30;;;;;;;12.41;92.51;100922.28;4872194;29;20529;-72
2023/07/27 00:46:25;;;;;;;3.45;2.53;;;;;;;12.43;92.34;100920.91;4873761;29;20902;-73
2023/07/27 00:48:51;;;;;;;5.43;2.45;;;;;;;12.43;92.30;100920.91;4876113;29;20494;-72
2023/07/27 00:51:17;;;;;;;4.05;2.80;;;;;;;12.44;92.61;100910.97;4862517;29;20088;-75
2023/07/27 00:53:43;;;;;;;3.60;2.70;;;;;;;12.47;92.80;100916.59;4864576;29;20714;-72
2023/07/27 00:56:09;;;;;;;4.28;2.97;;;;;;;12.47;92.50;100907.72;4878234;29;20067;-72
2023/07/27 00:58:38;;;;;;;3.70;2.30;;;;;;;12.48;92.66;100915.50;4859116;29;20065;-73
2023/07/27 01:01:06;;;;;;;3.20;2.30;;;;;;;12.48;92.35;100918.19;4862801;29;20108;-72
2023/07/27 01:03:35;;;;;;;3.70;2.50;;;;;;;12.48;92.62;100903.97;4880019;29;20047;-72
2023/07/27 01:06:01;;;;;;;3.72;2.75;;;;;;;12.47;92.56;100915.78;4862039;29;20117;-72
2023/07/27 01:08:28;;;;;;;2.90;2.08;;;;;;;12.48;92.60;100906.66;4864507;29;20048;-72
2023/07/27 01:11:23;;;;;;;3.78;2.42;;;;;;;12.49;92.31;100910.94;4845386;29;20032;-72
2023/07/27 01:14:10;;;;;;;3.20;2.25;;;;;;;12.49;92.62;100901.00;4861534;29;20040;-72
2023/07/27 01:16:47;;;;;;;7.00;3.00;;;;;;;12.45;92.45;100896.44;4862527;29;20047;-72
2023/07/27 01:19:47;;;;;;;5.78;3.35;;;;;;;12.47;92.68;100894.31;4880673;29;20487;-71
2023/07/27 01:22:32;;;;;;;4.70;3.65;;;;;;;12.47;92.32;100894.31;4868766;29;20044;-71
2023/07/27 01:25:05;;;;;;;4.50;2.80;;;;;;;12.44;92.21;100887.59;4878930;29;20033;-73
2023/07/27 01:27:51;;;;;;;3.97;2.70;;;;;;;12.45;92.95;100891.06;4846405;29;20045;-73
2023/07/27 01:30:44;;;;;;;6.82;3.20;;;;;;;12.44;92.66;100884.09;4860229;29;20059;-73
2023/07/27 01:33:14;;;;;;;3.70;2.60;;;;;;;12.40;91.98;100878.50;4872607;29;20044;-72
2023/07/27 01:35:50;;;;;;;6.05;3.05;;;;;;;12.34;91.91;100882.28;4872202;29;20082;-71
2023/07/27 01:38:18;;;;;;;6.65;3.67;;;;;;;12.32;91.60;100880.94;4871008;29;20471;-71
2023/07/27 01:40:46;;;;;;;3.40;2.53;;;;;;;12.28;91.27;100876.13;4858690;29;20518;-72
2023/07/27 01:43:13;;;;;;;5.57;2.58;;;;;;;12.23;91.21;100878.03;4840367;29;20049;-71
2023/07/27 01:45:39;;;;;;;4.18;2.80;;;;;;;12.17;91.01;100874.56;4871991;29;20033;-72
2023/07/27 01:48:07;;;;;;;4.25;2.75;;;;;;;12.12;90.75;100861.16;4874671;29;20060;-72
2023/07/27 01:50:34;;;;;;;3.88;2.47;;;;;;;12.06;91.00;100872.22;4874225;29;20048;-72
2023/07/27 01:53:02;;;;;;;4.22;3.20;;;;;;;11.96;90.59;100868.50;4873457;29;20041;-72
2023/07/27 01:55:29;;;;;;;5.40;3.15;;;;;;;11.94;90.55;100865.31;4852602;29;20040;-71
2023/07/27 01:58:02;;;;;;;4.35;3.03;;;;;;;11.89;90.69;100857.28;4873822;29;20037;-72
2023/07/27 02:00:28;;;;;;;5.50;3.63;;;;;;;11.87;90.73;100859.44;4857180;29;20029;-73
2023/07/27 02:02:55;;;;;;;4.65;2.90;;;;;;;11.83;90.71;100852.19;4872457;29;20081;-72
2023/07/27 02:05:23;;;;;;;5.55;3.70;;;;;;;11.80;90.82;100852.72;4871001;29;20108;-73
2023/07/27 02:07:49;;;;;;;6.55;2.92;;;;;;;11.77;91.53;100849.50;4857619;29;20040;-73
2023/07/27 02:10:17;;;;;;;6.15;3.63;;;;;;;11.79;91.42;100845.75;4890671;29;20403;-73
2023/07/27 02:12:49;;;;;;;6.50;3.72;;;;;;;11.77;91.86;100841.44;4874527;29;20120;-73
2023/07/27 02:15:21;;;;;;;4.97;3.92;;;;;;;11.78;92.49;100834.19;4843574;29;20043;-71
2023/07/27 02:17:52;;;;;;;4.57;3.00;;;;;;;11.76;91.81;100842.53;4875060;29;20029;-72
2023/07/27 02:20:20;;;;;;;5.47;3.63;;;;;;;11.72;91.23;100844.19;4861001;29;20064;-73
2023/07/27 02:22:47;;;;;;;5.15;3.10;;;;;;;11.70;91.05;100842.81;4878923;29;20036;-72
2023/07/27 02:25:13;;;;;;;6.32;3.45;;;;;;;11.65;90.79;100840.16;4881996;29;20685;-72
2023/07/27 02:27:39;;;;;;;7.03;3.22;;;;;;;11.61;90.64;100839.91;4858445;29;20037;-72
2023/07/27 02:30:06;;;;;;;6.53;2.97;;;;;;;11.53;90.66;100835.13;4876565;29;20100;-72
2023/07/27 02:32:32;;;;;;;4.82;3.22;;;;;;;11.51;90.52;100829.22;4877597;29;20100;-72
2023/07/27 02:34:58;;;;;;;;;;;;;;;11.47;90.50;100825.47;4874879;29;20164;-72
2023/07/27 02:37:24;;;;;;;4.78;3.53;;;;;;;11.41;90.48;100831.94;4891033;29;19926;-71
2023/07/27 02:39:51;;;;;;;6.35;3.40;;;;;;;11.37;90.35;100834.34;4878575;29;20041;-74
2023/07/27 02:42:17;;;;;;;7.75;3.72;;;;;;;11.32;90.76;100829.00;4855782;29;20113;-72
2023/07/27 02:44:42;;;;;;;5.57;3.00;;;;;;;11.29;90.43;100826.06;4881149;29;20502;-73
2023/07/27 02:47:08;;;;;;;5.47;3.70;;;;;;;11.28;90.22;100819.09;4878502;29;20059;-73
2023/07/27 02:49:34;;;;;;;6.03;3.42;;;;;;;11.24;90.13;100815.34;4873849;29;20091;-72
2023/07/27 02:52:00;;;;;;;;;;;;;;;11.24;90.32;100823.38;4876304;29;20569;-73
2023/07/27 02:54:26;;;;;;;5.60;3.35;;;;;;;11.20;90.41;100823.94;4873163;29;19915;-72
2023/07/27 02:56:52;;;;;;;4.05;2.65;;;;;;;11.21;90.57;100825.53;4878103;29;20040;-72
2023/07/27 02:59:25;;;;;;;6.70;6.00;;;;;;;11.19;90.30;100821.53;4890131;23;20132;-81
2023/07/27 03:01:51;;;;;;;;;;;;;;;11.18;90.47;100820.75;4947729;29;20050;-77
2023/07/27 03:04:22;;;;;;;4.55;2.83;;;;;;;11.15;90.48;100825.81;4947977;29;19922;-79
2023/07/27 03:06:48;;;;;;;4.65;3.00;;;;;;;11.08;90.44;100825.31;4903552;29;20385;-78
2023/07/27 03:09:17;;;;;;;5.95;3.42;;;;;;;11.08;90.81;100828.78;4899555;29;20886;-78
2023/07/27 03:11:42;;;;;;;4.70;3.35;;;;;;;11.09;91.01;100816.97;4917044;29;20568;-78
2023/07/27 03:14:09;;;;;;;4.68;2.88;;;;;;;11.06;90.66;100822.91;4916607;29;20167;-78
2023/07/27 03:16:36;;;;;;;6.57;3.10;;;;;;;11.05;90.70;100826.66;4921268;29;20768;-77
2023/07/27 03:19:02;;;;;;;5.20;3.13;;;;;;;11.02;90.44;100813.78;4914842;29;20031;-80
2023/07/27 03:21:28;;;;;;;7.00;3.75;;;;;;;11.02;90.71;100812.97;4915150;29;20054;-78
2023/07/27 03:23:53;;;;;;;5.72;3.53;;;;;;;11.02;90.67;100816.47;4917654;29;20086;-78
2023/07/27 03:26:19;;;;;;;4.78;3.60;;;;;;;11.01;91.08;100825.56;4898978;29;20047;-78
2023/07/27 03:28:46;;;;;;;4.78;3.63;;;;;;;10.97;90.71;100824.50;4901096;29;20123;-80
2023/07/27 03:31:16;;;;;;;7.50;3.97;;;;;;;11.02;92.01;100829.84;4897470;29;20032;-78
2023/07/27 03:33:42;;;;;;;6.32;4.43;;;;;;;11.06;93.01;100822.91;4914511;29;20127;-79
2023/07/27 03:36:08;;;;;;;7.30;4.70;;;;;;;11.11;93.50;100825.56;4898801;29;20126;-79
2023/07/27 03:38:35;;;;;;;7.78;4.60;;;;;;;11.17;93.45;100827.16;4900189;29;20406;-78
2023/07/27 03:41:02;;;;;;;6.70;4.45;;;;;;;11.21;93.67;100820.19;4927464;29;20080;-79
2023/07/27 03:43:29;;;;;;;7.45;4.60;;;;;;;11.25;93.56;100822.34;4896971;29;20090;-78
2023/07/27 03:45:54;;;;;;;10.02;4.93;;;;;;;11.26;93.72;100821.25;4895792;29;20035;-78
2023/07/27 03:48:20;;;;;;;9.48;4.72;;;;;;;11.24;93.62;100808.09;4904096;29;20036;-77
2023/07/27 03:50:46;;;;;;;7.05;4.60;;;;;;;11.29;93.26;100804.63;4925784;29;20466;-78
2023/07/27 03:53:12;;;;;;;7.30;4.03;;;;;;;11.32;93.47;100804.09;4896829;29;20031;-77
2023/07/27 03:55:37;;;;;;;7.88;4.30;;;;;;;11.37;93.65;100814.78;4911048;29;20114;-77
2023/07/27 03:58:03;;;;;;;8.85;6.00;;;;;;;11.41;94.22;100802.44;4914586;29;20035;-79
2023/07/27 04:00:29;;;;;;;8.32;4.88;;;;;;;11.43;94.10;100800.28;4913688;29;20164;-78
2023/07/27 04:02:54;;;;;;;10.68;5.22;;;;;;;11.47;94.27;100795.97;4909859;29;20070;-79
2023/07/27 04:05:21;;;;;;;6.88;4.90;;;;;;;11.51;93.87;100793.53;4921686;29;20035;-80
2023/07/27 04:07:51;;;;;;;8.00;5.38;;;;;;;11.56;93.84;100794.31;4921924;29;20031;-79
2023/07/27 04:10:18;;;;;;;8.35;5.10;;;;;;;11.58;93.64;100781.44;4901863;29;20099;-79
2023/07/27 04:12:44;;;;;;;9.63;5.53;;;;;;;11.61;93.51;100796.19;4903496;29;20480;-80
2023/07/27 04:15:10;;;;;;;6.43;4.30;;;;;;;11.63;93.82;100792.16;4896993;29;20074;-78
2023/07/27 04:17:36;;;;;;;8.23;5.47;;;;;;;11.69;93.88;100793.75;4897574;29;20462;-82
2023/07/27 04:20:02;;;;;;;8.88;5.53;;;;;;;11.73;93.96;100781.38;4903492;29;20036;-79
2023/07/27 04:22:27;;;;;;;7.72;5.00;;;;;;;11.77;93.85;100785.09;4903921;29;20104;-79
2023/07/27 04:24:53;;;;;;;12.40;6.00;;;;;;;11.82;93.79;100780.84;4901658;29;20056;-79
2023/07/27 04:27:19;;;;;;;10.68;6.15;;;;;;;11.83;93.75;100777.06;4929874;29;20028;-80
2023/07/27 04:29:45;;;;;;;;;;;;;;;11.88;93.48;100780.53;4911267;29;20090;-78
2023/07/27 04:32:11;;;;;;;12.13;5.70;;;;;;;11.88;94.02;100780.53;4905445;29;21159;-78
2023/07/27 04:34:36;;;;;;;10.55;6.03;;;;;;;11.91;93.61;100768.44;4916469;29;20545;-78
2023/07/27 04:37:03;;;;;;;10.13;5.95;;;;;;;11.97;94.03;100780.75;4918388;29;20043;-80
2023/07/27 04:39:28;;;;;;;8.65;5.85;;;;;;;12.00;93.73;100777.53;4898165;29;20052;-77
2023/07/27 04:41:54;;;;;;;9.68;6.07;;;;;;;12.07;93.41;100777.22;4898896;29;20044;-79
2023/07/27 04:44:23;;;;;;;13.38;6.60;;;;;;;12.11;93.38;100770.97;4928980;29;20035;-77
2023/07/27 04:46:49;;;;;;;11.52;6.32;;;;;;;12.16;93.41;100765.59;4915389;29;20339;-80
2023/07/27 04:49:14;;;;;;;9.80;6.40;;;;;;;12.21;93.53;100772.81;4911367;29;20059;-80
2023/07/27 04:51:40;;;;;;;11.07;6.07;;;;;;;12.27;93.77;100772.50;4891905;29;20477;-79
2023/07/27 04:54:06;;;;;;;8.43;5.88;;;;;;;12.34;93.34;100768.69;4911189;29;20040;-79
2023/07/27 04:56:31;;;;;;;10.95;7.05;;;;;;;12.37;93.28;100758.19;4911964;29;20068;-77
2023/07/27 04:58:57;;;;;;;10.88;6.93;;;;;;;12.42;93.29;100755.47;4926529;29;20039;-78
2023/07/27 05:01:23;;;;;;;;;;;;;;;12.49;93.57;100753.25;4913742;29;20035;-80
2023/07/27 05:03:51;;;;;;;10.30;6.20;;;;;;;12.51;93.19;100755.66;4908355;29;20481;-79
2023/07/27 05:06:16;;;;;;;12.35;6.30;;;;;;;12.55;92.78;100752.13;4912351;29;20047;-78
2023/07/27 05:08:43;;;;;;;10.85;6.00;;;;;;;12.58;93.23;100751.53;4894828;29;20131;-76
2023/07/27 05:11:10;;;;;;;9.10;5.97;;;;;;;12.64;92.53;100743.44;4896093;29;20118;-78
2023/07/27 05:13:35;;;;;;;9.75;6.25;;;;;;;12.68;92.99;100745.28;4909419;29;20087;-79
2023/07/27 05:16:02;;;;;;;11.50;6.30;;;;;;;12.72;93.26;100745.50;4922192;29;20035;-78
2023/07/27 05:18:28;;;;;;;9.88;6.38;;;;;;;12.71;92.71;100744.72;4905767;29;20042;-80
2023/07/27 05:20:55;;;;;;;8.93;5.88;;;;;;;12.71;92.58;100751.97;4894301;29;20408;-80
2023/07/27 05:23:20;;;;;;;7.85;5.60;;;;;;;12.69;92.37;100752.28;4924388;29;20118;-79
2023/07/27 05:25:47;;;;;;;9.60;6.68;;;;;;;12.70;92.56;100753.06;4912244;29;20126;-78
2023/07/27 05:28:12;;;;;;;10.52;6.13;;;;;;;12.69;92.67;100746.91;4919037;29;20039;-77
2023/07/27 05:30:39;;;;;;;;;;;;;;;12.72;92.91;100742.84;4913751;29;20094;-78
2023/07/27 05:33:06;;;;;;;10.48;6.53;;;;;;;12.70;93.05;100745.81;4883281;29;19950;-78
2023/07/27 05:35:32;;;;;;;;;;;;;;;12.71;92.73;100749.28;4916928;29;20042;-76
2023/07/27 05:37:57;;;;;;;11.70;5.47;;;;;;;12.74;92.93;100741.47;4918545;29;19919;-77
2023/07/27 05:40:23;;;;;;;11.07;6.15;;;;;;;12.75;92.74;100731.53;4913417;29;20526;-76
2023/07/27 05:42:50;;;;;;;10.95;6.50;;;;;;;12.84;92.65;100733.31;4899524;29;20497;-78
2023/07/27 05:45:15;;;;;;;12.60;6.97;;;;;;;12.92;92.89;100734.56;4916561;29;20047;-77
2023/07/27 05:47:41;;;;;;;12.40;7.57;;;;;;;12.91;92.75;100729.47;4915828;29;20031;-76
2023/07/27 05:50:08;;;;;;;9.00;6.03;;;;;;;12.97;92.65;100725.66;4898796;29;20541;-76
2023/07/27 05:52:34;;;;;;;11.82;6.70;;;;;;;12.98;92.41;100721.88;4916689;29;20034;-79
2023/07/27 05:54:59;;;;;;;10.95;6.88;;;;;;;13.04;91.97;100718.03;4918137;29;20406;-78
2023/07/27 05:57:25;;;;;;;11.32;7.07;;;;;;;13.09;92.60;100710.72;4906759;29;20036;-76
2023/07/27 05:59:51;;;;;;;9.63;6.72;;;;;;;13.17;92.43;100708.50;4916228;29;20481;-78
2023/07/27 06:02:17;;;;;;;9.85;6.70;;;;;;;13.18;91.52;100708.19;4934390;29;20031;-80
2023/07/27 06:04:42;;;;;;;12.80;7.72;;;;;;;13.25;92.86;100700.59;4905056;29;20144;-80
2023/07/27 06:07:08;;;;;;;13.65;6.95;;;;;;;13.29;91.81;100712.41;4900371;29;20652;-81
2023/07/27 06:09:36;;;;;;;13.70;6.60;;;;;;;13.30;91.83;100702.44;4899270;29;20421;-80
2023/07/27 06:12:11;;;;;;;11.13;7.15;;;;;;;13.32;92.18;100701.06;4925040;29;20134;-80
2023/07/27 06:14:41;;;;;;;8.82;6.10;;;;;;;13.41;91.70;100709.28;4919504;29;20072;-80
2023/07/27 06:17:07;;;;;;;12.25;7.28;;;;;;;13.43;92.12;100700.94;4913011;29;20176;-80
2023/07/27 06:19:33;;;;;;;;;;;;;;;13.52;91.53;100699.19;4934191;29;20032;-80
2023/07/27 06:21:59;;;;;;;8.68;5.97;;;;;;;13.46;91.13;100692.28;4933990;29;19918;-80
2023/07/27 06:58:06;;;;;;;10.77;6.13;;;;;;;13.77;90.27;100693.44;5349540;23;20082;-84
2023/07/27 07:03:27;;;;;;;12.25;8.90;;;;;;;13.85;90.00;100698.16;5871706;23;21032;-80
2023/07/27 09:01:51;;;;;;;11.00;6.82;;;;;;;14.72;87.63;100621.28;4847650;29;20041;-74
2023/07/27 09:04:17;;;;;;;8.25;5.93;;;;;;;14.77;87.60;100626.56;4845130;29;20034;-73
2023/07/27 09:06:44;;;;;;;10.15;6.47;;;;;;;14.71;87.56;100625.06;4836178;29;20076;-73
2023/07/27 09:09:25;;;;;;;12.70;6.10;;;;;;;14.70;87.21;100628.88;4840222;29;20038;-75
2023/07/27 09:11:51;;;;;;;9.70;6.15;;;;;;;14.75;87.82;100631.44;4827716;29;20408;-72
2023/07/27 09:14:19;;;;;;;9.43;5.82;;;;;;;14.81;88.20;100626.75;4835940;29;20086;-75
2023/07/27 09:16:45;;;;;;;8.57;6.25;;;;;;;14.84;88.88;100626.19;4838875;29;20045;-72
2023/07/27 09:19:12;;;;;;;8.48;6.07;;;;;;;14.86;88.50;100624.78;4844989;29;20033;-72
2023/07/27 09:21:48;;;;;;;8.40;6.45;;;;;;;14.92;88.34;100625.47;4826394;29;20102;-73
2023/07/27 09:24:16;;;;;;;10.77;7.13;;;;;;;14.97;88.61;100623.47;4841471;29;20043;-74
2023/07/27 09:26:50;;;;;;;8.90;6.15;;;;;;;15.05;88.52;100626.56;4857951;29;20033;-73
2023/07/27 09:29:18;;;;;;;9.32;6.82;;;;;;;14.99;89.61;100623.97;4852554;29;20064;-73
2023/07/27 09:31:49;;;;;;;8.23;6.43;;;;;;;15.00;87.97;100624.75;4839831;29;20492;-73
2023/07/27 09:34:16;;;;;;;9.10;6.82;;;;;;;15.07;88.40;100618.94;4836899;29;20034;-74
2023/07/27 09:36:42;;;;;;;10.05;6.63;;;;;;;15.13;89.42;100615.84;4834782;29;20042;-74
2023/07/27 09:39:10;;;;;;;9.38;6.68;;;;;;;15.20;88.94;100616.22;4853284;29;20045;-75
2023/07/27 09:41:36;;;;;;;8.70;7.13;;;;;;;15.29;89.10;100616.28;4855190;29;20046;-75
2023/07/27 09:44:03;;;;;;;10.38;6.65;;;;;;;15.27;87.99;100610.41;4834192;29;20041;-74
2023/07/27 09:46:30;;;;;;;9.65;6.72;;;;;;;15.29;88.84;100605.50;4852820;29;20042;-72
2023/07/27 09:48:57;;;;;;;10.65;7.75;;;;;;;15.41;88.74;100608.47;4855776;29;20058;-73
2023/07/27 09:51:25;;;;;;;10.95;6.55;;;;;;;15.40;87.75;100601.47;4827154;29;20064;-73
2023/07/27 09:53:51;;;;;;;9.57;7.07;;;;;;;15.43;88.38;100603.56;4842275;29;20044;-74
2023/07/27 09:56:17;;;;;;;9.18;6.40;;;;;;;15.43;88.78;100606.25;4824792;29;20038;-75
2023/07/27 09:58:45;;;;;;;;;;;;;;;15.49;89.55;100590.75;4836093;29;20110;-74
2023/07/27 10:01:11;;;;;;;10.05;6.50;;;;;;;15.50;89.07;100586.94;4838980;29;19923;-73
2023/07/27 10:03:37;;;;;;;8.30;5.80;;;;;;;15.54;88.78;100583.34;4837162;29;20049;-73
2023/07/27 10:06:03;;;;;;;;;;;;;;;15.48;87.59;100584.56;4820406;29;20038;-74
2023/07/27 10:08:29;;;;;;;9.07;5.75;;;;;;;15.52;88.01;100579.34;4853498;29;19925;-74
2023/07/27 10:10:58;;;;;;;9.55;6.20;;;;;;;15.53;88.76;100578.25;4834472;29;20593;-73
2023/07/27 10:13:23;;;;;;;7.35;5.53;;;;;;;15.59;88.13;100576.22;4836986;29;20030;-74
2023/07/27 10:15:49;;;;;;;;;;;;;;;15.67;88.43;100578.22;4852976;29;20036;-74
2023/07/27 10:18:15;;;;;;;9.57;6.60;;;;;;;15.73;88.68;100582.38;4837896;29;19964;-73
2023/07/27 10:20:41;;;;;;;;;;;;;;;15.83;89.45;100571.31;4841746;29;20045;-74
2023/07/27 10:23:26;;;;;;;8.57;5.40;;;;;;;15.91;88.68;100567.88;4839658;29;19978;-75
2023/07/27 10:25:58;;;;;;;9.65;6.25;;;;;;;15.94;88.01;100561.88;4845160;29;20739;-72
2023/07/27 10:28:38;;;;;;;10.18;6.40;;;;;;;16.02;87.11;100569.22;4841287;29;20042;-73
2023/07/27 10:31:26;;;;;;;9.85;6.82;;;;;;;16.06;86.25;100567.50;4837888;29;20122;-76
2023/07/27 10:34:01;;;;;;;8.55;6.28;;;;;;;16.05;86.73;100570.50;4850023;29;20528;-72
2023/07/27 10:36:59;;;;;;;7.80;5.75;;;;;;;16.10;86.55;100554.94;4840572;29;20042;-73
2023/07/27 10:39:32;;;;;;;9.27;6.72;;;;;;;16.06;86.72;100564.78;4837304;29;20137;-75
2023/07/27 10:42:13;;;;;;;8.93;6.28;;;;;;;16.06;85.96;100554.00;4838833;29;20527;-73
2023/07/27 10:44:38;;;;;;;10.15;5.95;;;;;;;16.05;87.41;100555.09;4814398;29;20045;-74
2023/07/27 10:47:06;;;;;;;;;;;;;;;16.09;88.46;100555.25;4842300;29;20428;-74
2023/07/27 10:49:37;;;;;;;7.75;6.50;;;;;;;16.08;87.07;100546.38;4836695;29;20310;-73
2023/07/27 10:52:04;;;;;;;7.10;6.07;;;;;;;16.04;86.96;100539.97;4838130;29;20646;-76
2023/07/27 10:54:31;;;;;;;7.43;5.97;;;;;;;16.08;86.99;100540.97;4854862;29;20029;-74
2023/07/27 10:56:57;;;;;;;11.98;7.65;;;;;;;16.09;88.70;100545.25;4854871;29;20045;-73
2023/07/27 10:59:24;;;;;;;;;;;;;;;16.06;87.53;100534.28;4806795;29;20171;-75
2023/07/27 11:01:51;;;;;;;10.25;7.63;;;;;;;16.04;86.54;100526.47;4835368;29;19924;-73
2023/07/27 11:04:17;;;;;;;8.65;7.22;;;;;;;16.05;87.21;100530.78;4834927;29;20074;-75
2023/07/27 11:06:44;;;;;;;8.07;6.57;;;;;;;16.18;88.30;100530.97;4821441;29;20049;-73
2023/07/27 11:09:16;;;;;;;9.63;6.65;;;;;;;16.15;86.91;100518.09;4836358;29;20026;-74
2023/07/27 11:11:43;;;;;;;8.15;6.35;;;;;;;16.26;88.10;100519.44;4836817;29;20052;-74
2023/07/27 11:14:09;;;;;;;7.28;5.93;;;;;;;16.15;86.30;100513.50;4852013;29;20034;-75
2023/07/27 11:16:37;;;;;;;;;;;;;;;16.23;86.63;100520.03;4838603;29;20480;-73
2023/07/27 11:19:08;;;;;;;9.15;7.28;;;;;;;16.13;85.78;100517.63;4823650;29;20002;-73
2023/07/27 11:21:39;;;;;;;8.73;6.40;;;;;;;16.15;86.64;100518.09;4835172;29;20045;-74
2023/07/27 11:24:06;;;;;;;10.65;6.63;;;;;;;16.16;86.02;100514.28;4850171;29;20068;-73
2023/07/27 11:26:32;;;;;;;7.95;6.18;;;;;;;16.18;85.25;100495.84;4838087;29;20043;-73
2023/07/27 11:29:00;;;;;;;;;;;;;;;16.20;85.22;100499.06;4840308;29;20063;-74
2023/07/27 11:31:26;;;;;;;9.88;5.75;;;;;;;16.25;85.63;100486.19;4805930;29;19955;-73
2023/07/27 11:33:59;;;;;;;8.68;6.25;;;;;;;16.27;86.46;100483.19;4828939;29;20038;-73
2023/07/27 11:36:30;;;;;;;10.57;6.35;;;;;;;16.28;84.93;100480.16;4834571;29;20059;-74
2023/07/27 11:38:58;;;;;;;8.57;6.25;;;;;;;16.38;86.15;100473.66;4838705;29;20042;-74
2023/07/27 11:41:29;;;;;;;8.05;6.10;;;;;;;16.46;85.37;100472.91;4823623;29;20034;-72
2023/07/27 11:43:56;;;;;;;10.02;7.00;;;;;;;16.48;86.38;100467.19;4839219;29;20037;-73
2023/07/27 11:46:25;;;;;;;10.23;6.88;;;;;;;16.54;85.03;100466.72;4853368;29;20245;-74
2023/07/27 11:48:52;;;;;;;9.85;6.70;;;;;;;16.61;85.51;100458.94;4851197;29;20034;-73
2023/07/27 11:51:17;;;;;;;;;;;;;;;16.60;84.41;100465.44;4805301;29;20044;-76
2023/07/27 11:53:46;;;;;;;9.05;6.80;;;;;;;16.60;83.30;100459.25;4837648;29;19931;-74
2023/07/27 11:56:12;;;;;;;8.85;6.53;;;;;;;16.76;84.45;100463.09;4816602;29;20087;-72
2023/07/27 11:58:40;;;;;;;9.45;6.20;;;;;;;16.87;83.76;100466.31;4850442;29;20038;-74
2023/07/27 12:01:06;;;;;;;11.30;6.90;;;;;;;16.94;83.23;100452.28;4837079;29;20464;-76
2023/07/27 12:03:33;;;;;;;;;;;;;;;16.92;82.33;100449.88;4837006;29;20050;-75
2023/07/27 12:06:03;;;;;;;10.57;6.85;;;;;;;17.00;84.29;100451.81;4835773;29;20355;-74
2023/07/27 12:08:30;;;;;;;9.50;6.85;;;;;;;17.04;83.52;100443.84;4851553;29;20038;-74
2023/07/27 12:10:59;;;;;;;9.65;6.75;;;;;;;17.08;82.29;100440.19;4838484;29;20387;-75
2023/07/27 12:13:25;;;;;;;13.80;6.85;;;;;;;17.10;81.57;100450.69;4857078;29;20052;-75
2023/07/27 12:15:58;;;;;;;;;;;;;;;17.03;80.97;100453.88;4838386;29;20470;-76
2023/07/27 12:18:26;;;;;;;8.52;5.70;;;;;;;17.01;81.16;100437.16;4834829;29;19917;-74
2023/07/27 12:20:53;;;;;;;8.80;6.38;;;;;;;16.95;81.22;100432.25;4820715;29;20042;-73
2023/07/27 12:23:19;;;;;;;8.98;6.60;;;;;;;16.95;81.92;100438.44;4832865;29;20187;-74
2023/07/27 12:25:45;;;;;;;;;;;;;;;16.84;81.75;100431.75;4837176;29;20116;-75
2023/07/27 12:28:10;;;;;;;8.45;5.28;;;;;;;16.82;81.30;100431.28;4827263;29;19935;-74
2023/07/27 12:30:37;;;;;;;8.85;6.05;;;;;;;16.85;82.12;100431.44;4837621;29;20034;-74
2023/07/27 12:33:02;;;;;;;;;;;;;;;16.79;82.39;100434.63;4837869;29;20036;-75
2023/07/27 12:35:28;;;;;;;7.43;5.00;;;;;;;16.82;81.02;100432.09;4838478;29;19920;-75
2023/07/27 12:37:55;;;;;;;;;;;;;;;16.81;81.25;100432.41;4832729;29;20077;-75
2023/07/27 12:40:21;;;;;;;6.78;5.38;;;;;;;16.88;82.56;100427.31;4841842;29;20374;-75
2023/07/27 12:42:47;;;;;;;;;;;;;;;16.86;82.09;100429.53;4820671;29;20049;-72
2023/07/27 12:45:13;;;;;;;8.40;5.95;;;;;;;16.85;82.28;100417.13;4823927;29;19927;-75
2023/07/27 12:47:42;;;;;;;8.05;5.50;;;;;;;16.84;83.34;100410.91;4836024;29;20064;-76
2023/07/27 12:50:09;;;;;;;7.97;6.00;;;;;;;16.91;82.90;100421.25;4812433;29;20041;-75
2023/07/27 12:52:35;;;;;;;6.47;5.10;;;;;;;16.90;82.87;100415.06;4843310;29;20041;-75
2023/07/27 12:55:00;;;;;;;;;;;;;;;16.79;81.98;100405.66;4839993;29;20095;-74
2023/07/27 12:57:26;;;;;;;6.43;3.83;;;;;;;16.75;82.79;100412.06;4821984;29;19944;-73
2023/07/27 12:59:51;;;;;;;;;;;;;;;16.73;82.55;100408.84;4840416;29;20042;-74
2023/07/27 13:02:17;;;;;;;4.45;2.72;;;;;;;16.69;81.02;100410.59;4849809;29;19920;-76
2023/07/27 13:04:43;;;;;;;;;;;;;;;16.60;79.50;100410.59;4814885;29;20662;-74
2023/07/27 13:07:10;;;;;;;5.50;2.97;;;;;;;16.58;80.95;100413.59;4840142;29;20000;-76
2023/07/27 13:09:36;;;;;;;6.25;2.72;;;;;;;16.54;81.07;100404.53;4859100;29;20121;-75
2023/07/27 13:12:02;;;;;;;;;;;;;;;16.51;81.22;100396.25;4838072;29;20116;-74
2023/07/27 13:14:28;;;;;;;3.75;2.40;;;;;;;16.54;81.69;100388.31;4842744;29;20434;-75
2023/07/27 13:16:53;;;;;;;4.72;2.53;;;;;;;16.61;83.04;100385.94;4807877;29;20088;-73
2023/07/27 13:19:19;;;;;;;6.20;2.75;;;;;;;16.56;80.09;100382.59;4845162;29;20042;-74
2023/07/27 13:21:44;;;;;;;3.92;2.50;;;;;;;16.62;80.90;100382.13;4839389;29;20049;-74
2023/07/27 13:24:10;;;;;;;6.05;3.38;;;;;;;16.59;80.28;100382.72;4841671;29;20064;-73
2023/07/27 13:26:36;;;;;;;4.70;3.05;;;;;;;16.62;80.30;100386.72;4842350;29;20037;-76
2023/07/27 13:29:02;;;;;;;5.95;3.47;;;;;;;16.67;82.19;100377.66;4834743;29;20030;-76
2023/07/27 13:31:28;;;;;;;;;;;;;;;16.69;81.87;100386.25;4840234;29;20037;-74
2023/07/27 13:33:54;;;;;;;3.65;2.72;;;;;;;16.55;81.87;100387.22;4824592;29;19948;-74
2023/07/27 13:36:20;;;;;;;;;;;;;;;16.40;80.89;100379.56;4837045;29;20547;-74
2023/07/27 13:38:45;;;;;;;3.80;2.22;;;;;;;16.37;81.53;100374.78;4832158;29;19993;-74
2023/07/27 13:41:11;;;;;;;;;;;;;;;16.31;80.61;100374.16;4835845;29;20061;-74
2023/07/27 13:43:36;;;;;;;4.32;2.40;;;;;;;16.35;80.67;100371.63;4839366;29;20007;-74
2023/07/27 13:46:03;;;;;;;;;;;;;;;16.31;79.69;100373.34;4836709;29;20049;-76
2023/07/27 13:48:28;;;;;;;3.13;2.50;;;;;;;16.31;81.14;100368.75;4822397;29;19928;-76
2023/07/27 13:50:54;;;;;;;3.40;2.58;;;;;;;16.41;80.00;100369.56;4824083;29;20789;-75
2023/07/27 13:53:20;;;;;;;3.28;2.50;;;;;;;16.46;80.96;100372.91;4849260;29;20106;-74
2023/07/27 13:55:48;;;;;;;;;;;;;;;16.53;80.34;100375.94;4834910;29;20065;-75
2023/07/27 13:58:14;;;;;;;4.03;2.60;;;;;;;16.57;80.15;100371.44;4841397;29;19985;-75
2023/07/27 14:00:40;;;;;;;4.03;2.45;;;;;;;16.57;79.66;100371.44;4821350;29;20864;-76
2023/07/27 14:03:06;;;;;;;;;;;;;;;16.59;79.19;100371.91;4851513;29;20128;-77
2023/07/27 14:05:31;;;;;;;5.07;2.85;;;;;;;16.58;80.22;100369.53;4837092;29;19976;-73